Time;durP1;ratioP1;P1;durP2;ratioP2;P2;SDS_P1;SDS_P2;PMS_P1;PMS_P2;Temp;Humidity;BMP_temperature;BMP_pressure;BME280_temperature;BME280_humidity;BME280_pressure;Samples;Min_cycle;Max_cycle;Signal;HPM_P1;HPM_P2
2022/02/16 00:00:53;;;;;;;6.38;1.52;;;;;;;6.29;75.78;100092.63;21067220;28;20044;-69
2022/02/16 00:10:56;;;;;;;5.30;1.35;;;;;;;6.36;74.14;100091.72;21067778;28;20040;-70
2022/02/16 00:20:57;;;;;;;5.85;1.30;;;;;;;6.35;74.44;100084.81;21062980;28;20109;-69
2022/02/16 00:31:18;;;;;;;4.80;1.30;;;;;;;6.41;74.49;100074.38;21063605;28;20127;-69
2022/02/16 00:41:19;;;;;;;6.10;1.70;;;;;;;6.39;73.96;100044.91;21063472;28;20064;-69
2022/02/16 00:51:21;;;;;;;5.82;1.60;;;;;;;6.46;74.16;100050.09;21065825;28;20493;-70
2022/02/16 01:01:23;;;;;;;6.63;1.48;;;;;;;6.38;74.72;100047.53;21065170;28;20040;-70
2022/02/16 01:11:25;;;;;;;5.82;1.48;;;;;;;6.37;75.69;100018.06;21065267;28;20143;-69
2022/02/16 01:21:27;;;;;;;4.82;1.00;;;;;;;6.38;77.09;100014.59;21064247;28;20077;-69
2022/02/16 01:31:29;;;;;;;7.22;1.10;;;;;;;6.29;81.48;100001.63;21076570;28;20852;-69
2022/02/16 01:41:30;;;;;;;3.35;1.10;;;;;;;6.22;83.16;99993.84;21079028;28;20044;-69
2022/02/16 01:51:32;;;;;;;6.60;2.00;;;;;;;6.07;86.96;99984.41;21078435;28;20259;-70
2022/02/16 02:01:34;;;;;;;6.90;1.10;;;;;;;6.00;89.35;99956.72;21077099;28;20052;-71
2022/02/16 02:11:36;;;;;;;3.13;1.15;;;;;;;5.98;90.01;99943.72;21075279;28;20040;-70
2022/02/16 02:21:38;;;;;;;4.93;1.10;;;;;;;5.78;92.10;99929.91;21075426;28;20106;-71
2022/02/16 02:31:41;;;;;;;5.10;1.17;;;;;;;5.91;91.97;99908.22;21074180;28;20129;-69
2022/02/16 02:41:42;;;;;;;3.97;1.00;;;;;;;5.74;93.63;99877.09;21073367;28;20413;-69
2022/02/16 02:51:45;;;;;;;5.13;0.95;;;;;;;5.76;94.53;99867.59;21073974;28;20036;-69
2022/02/16 03:01:47;;;;;;;4.43;1.17;;;;;;;5.76;93.95;99844.22;21072411;28;20044;-70
2022/02/16 03:11:48;;;;;;;4.22;1.10;;;;;;;5.83;92.75;99834.63;21071093;28;20117;-71
2022/02/16 03:21:50;;;;;;;6.00;1.30;;;;;;;5.85;93.08;99820.78;21070858;28;20059;-72
2022/02/16 03:31:52;;;;;;;4.55;1.20;;;;;;;5.81;93.56;99813.88;21069246;28;20052;-70
2022/02/16 03:41:53;;;;;;;3.72;1.33;;;;;;;5.87;93.74;99802.56;21069400;28;20059;-70
2022/02/16 03:51:55;;;;;;;2.58;0.90;;;;;;;5.81;94.47;99785.31;21067523;28;20512;-70
2022/02/16 04:02:01;;;;;;;6.80;1.13;;;;;;;5.86;94.33;99777.47;21067495;28;20052;-69
2022/02/16 04:12:03;;;;;;;3.00;0.80;;;;;;;5.93;94.19;99794.78;21066780;28;20036;-70
2022/02/16 04:22:04;;;;;;;5.78;1.00;;;;;;;5.95;93.89;99781.78;21067069;28;20109;-70
2022/02/16 04:32:06;;;;;;;5.35;0.93;;;;;;;5.96;94.21;99758.38;21065939;28;20401;-69
2022/02/16 04:42:08;;;;;;;5.10;0.77;;;;;;;5.96;94.19;99737.59;21065750;28;20101;-70
2022/02/16 04:52:09;;;;;;;2.88;0.85;;;;;;;5.95;94.26;99727.22;21065190;28;20052;-70
2022/02/16 05:02:11;;;;;;;2.75;1.08;;;;;;;6.10;93.30;99703.69;21071036;28;20044;-70
2022/02/16 05:12:13;;;;;;;4.45;0.82;;;;;;;6.20;92.79;99702.75;21083326;28;20044;-69
2022/02/16 05:22:14;;;;;;;4.68;1.23;;;;;;;6.16;93.80;99688.03;21080342;28;20390;-69
2022/02/16 05:32:16;;;;;;;2.40;0.75;;;;;;;6.24;93.12;99681.03;21079464;28;20558;-69
2022/02/16 05:42:18;;;;;;;2.55;0.88;;;;;;;6.38;91.88;99660.97;21078467;28;20048;-69
2022/02/16 05:52:20;;;;;;;6.70;1.58;;;;;;;6.46;92.22;99644.41;21077560;28;20055;-69
2022/02/16 06:02:22;;;;;;;3.20;0.80;;;;;;;6.58;92.05;99629.53;21076802;28;20048;-68
2022/02/16 06:12:23;;;;;;;2.22;0.90;;;;;;;6.66;92.87;99626.84;21076724;28;20048;-69
2022/02/16 06:22:25;;;;;;;4.57;0.90;;;;;;;6.71;92.55;99614.66;21076424;28;20103;-69
2022/02/16 06:32:26;;;;;;;4.05;0.68;;;;;;;6.73;92.77;99602.47;21074068;28;20047;-69
2022/02/16 06:42:28;;;;;;;2.97;0.52;;;;;;;6.73;93.85;99612.88;21074215;28;20085;-70
2022/02/16 06:52:30;;;;;;;4.68;0.90;;;;;;;6.70;94.09;99620.72;21072450;28;20047;-68
2022/02/16 07:02:32;;;;;;;1.83;0.63;;;;;;;6.84;94.62;99599.72;21071002;28;20048;-69
2022/02/16 07:12:36;;;;;;;2.47;0.70;;;;;;;6.85;94.37;99612.72;21070667;28;20048;-69
2022/02/16 07:22:42;;;;;;;4.13;0.60;;;;;;;6.88;94.74;99597.06;21068676;28;20101;-69
2022/02/16 07:32:43;;;;;;;3.78;1.17;;;;;;;6.89;94.36;99598.78;21068648;28;20121;-69
2022/02/16 07:42:45;;;;;;;2.08;0.88;;;;;;;6.97;96.35;99590.88;21067790;28;20112;-69
2022/02/16 07:52:47;;;;;;;3.72;0.80;;;;;;;6.90;98.50;99584.03;21067684;28;20048;-69
2022/02/16 08:02:48;;;;;;;1.60;0.60;;;;;;;6.81;100.00;99561.63;21057384;28;20048;-69
2022/02/16 08:12:56;;;;;;;2.88;0.63;;;;;;;6.96;99.16;99551.88;21057468;28;20052;-66
2022/02/16 08:22:57;;;;;;;2.70;0.90;;;;;;;6.97;100.00;99536.22;21056914;28;20139;-67
2022/02/16 08:32:59;;;;;;;1.58;0.50;;;;;;;7.22;99.38;99534.09;21045679;28;20048;-67
2022/02/16 08:43:00;;;;;;;0.80;0.38;;;;;;;7.31;98.83;99512.25;21022081;28;20153;-68
2022/02/16 08:53:02;;;;;;;1.55;0.40;;;;;;;7.48;98.71;99496.34;21024261;28;20036;-68
2022/02/16 09:03:04;;;;;;;3.08;1.00;;;;;;;7.44;99.51;99487.72;21052420;28;20048;-67
2022/02/16 09:13:06;;;;;;;2.35;0.68;;;;;;;7.58;99.67;99464.03;21055227;28;20044;-66
2022/02/16 09:23:07;;;;;;;3.67;1.00;;;;;;;7.62;98.99;99430.09;21055315;28;20052;-67
2022/02/16 09:33:09;;;;;;;1.73;0.60;;;;;;;7.80;96.63;99433.22;21049413;28;20048;-67
2022/02/16 09:43:12;;;;;;;1.85;0.60;;;;;;;8.05;95.71;99462.22;21053889;28;20067;-67
2022/02/16 09:53:14;;;;;;;3.55;1.25;;;;;;;8.20;94.68;99456.72;21065354;28;20576;-67
2022/02/16 10:03:16;;;;;;;3.72;0.90;;;;;;;8.56;94.47;99457.69;21066670;28;20056;-67
2022/02/16 10:13:20;;;;;;;1.33;0.40;;;;;;;8.39;97.22;99439.81;21065640;28;20070;-67
2022/02/16 10:23:40;;;;;;;2.63;0.80;;;;;;;9.00;93.08;99404.41;21058685;28;20056;-69
2022/02/16 10:33:51;;;;;;;1.83;0.60;;;;;;;9.33;93.20;99400.97;21059591;28;20044;-71
2022/02/16 10:43:53;;;;;;;2.22;0.50;;;;;;;9.29;95.26;99426.31;21061269;28;20059;-69
2022/02/16 10:54:17;;;;;;;2.70;0.65;;;;;;;9.43;95.90;99439.88;21063290;28;20048;-70
2022/02/16 11:04:21;;;;;;;2.38;0.40;;;;;;;9.08;99.86;99437.31;21060895;28;20052;-69
2022/02/16 11:14:28;;;;;;;2.83;1.10;;;;;;;8.78;100.00;99436.31;21061118;28;20098;-69
2022/02/16 11:24:33;;;;;;;2.63;1.00;;;;;;;9.06;100.00;99442.59;21058799;28;20067;-70
2022/02/16 11:34:34;;;;;;;2.43;0.87;;;;;;;8.71;100.00;99440.81;21061336;28;20040;-68
2022/02/16 11:44:50;;;;;;;3.15;1.02;;;;;;;8.79;100.00;99433.66;21060714;28;20056;-68
2022/02/16 11:54:55;;;;;;;1.95;1.20;;;;;;;8.60;100.00;99435.84;21059146;28;20542;-69
2022/02/16 12:04:57;;;;;;;;;;;;;;;8.75;100.00;99426.81;21058750;28;20505;-70
2022/02/16 12:15:00;;;;;;;4.03;1.88;;;;;;;8.72;100.00;99426.91;21058054;28;19990;-73
2022/02/16 12:25:21;;;;;;;2.25;0.88;;;;;;;8.95;100.00;99413.25;21060352;28;20083;-75
2022/02/16 12:35:23;;;;;;;1.85;0.90;;;;;;;8.85;100.00;99386.53;21057040;28;20469;-71
2022/02/16 12:45:25;;;;;;;3.72;0.90;;;;;;;8.98;100.00;99338.34;21054470;28;20168;-69
2022/02/16 12:55:26;;;;;;;3.08;1.27;;;;;;;9.16;100.00;99328.31;21057203;28;20440;-72
2022/02/16 13:05:36;;;;;;;1.75;0.80;;;;;;;9.21;100.00;99337.72;21056437;28;20056;-69
2022/02/16 13:15:38;;;;;;;2.17;0.70;;;;;;;9.19;100.00;99349.94;21055859;28;20101;-70
2022/02/16 13:25:50;;;;;;;2.67;1.10;;;;;;;9.21;100.00;99326.44;21065761;28;20056;-70
2022/02/16 13:35:55;;;;;;;4.03;1.17;;;;;;;9.17;100.00;99316.97;21067362;28;20051;-69
2022/02/16 13:46:02;;;;;;;2.60;1.02;;;;;;;9.10;100.00;99307.56;21070468;28;20135;-71
2022/02/16 13:56:06;;;;;;;4.43;1.20;;;;;;;9.18;100.00;99306.47;21070170;28;20454;-70
2022/02/16 14:06:12;;;;;;;3.20;1.00;;;;;;;9.25;100.00;99318.47;21068708;28;20113;-70
2022/02/16 14:16:14;;;;;;;2.78;1.15;;;;;;;9.25;100.00;99291.50;21066152;28;20048;-69
2022/02/16 14:26:15;;;;;;;2.53;0.93;;;;;;;9.51;100.00;99251.53;21067704;28;20104;-69
2022/02/16 14:36:17;;;;;;;2.92;1.52;;;;;;;9.73;100.00;99257.00;21065045;28;20421;-69
2022/02/16 14:46:18;;;;;;;1.98;0.95;;;;;;;9.63;100.00;99235.50;21066072;28;20056;-68
2022/02/16 14:56:23;;;;;;;1.90;0.82;;;;;;;9.61;100.00;99265.19;21112005;22;20052;-68
2022/02/16 15:06:25;;;;;;;5.45;0.98;;;;;;;9.61;100.00;99254.75;20939463;28;20155;-70
2022/02/16 15:16:26;;;;;;;4.88;1.50;;;;;;;9.77;100.00;99255.97;20939760;28;20045;-68
2022/02/16 15:26:28;;;;;;;2.53;0.85;;;;;;;9.90;100.00;99249.47;20938055;28;20636;-68
2022/02/16 15:36:30;;;;;;;3.22;0.70;;;;;;;10.01;100.00;99263.06;20961100;28;20070;-68
2022/02/16 15:46:32;;;;;;;1.95;0.93;;;;;;;9.95;100.00;99271.09;20959662;28;20056;-68
2022/02/16 15:56:34;;;;;;;2.20;0.80;;;;;;;10.13;100.00;99272.28;20936644;28;20041;-68
2022/02/16 16:06:38;;;;;;;3.67;1.17;;;;;;;10.24;100.00;99258.88;20932268;28;20044;-68
2022/02/16 16:16:42;;;;;;;1.77;0.80;;;;;;;10.22;100.00;99287.69;20935632;28;20053;-67
2022/02/16 16:26:48;;;;;;;2.70;0.90;;;;;;;9.96;100.00;99259.72;20931979;28;20041;-68
2022/02/16 16:36:49;;;;;;;2.72;1.13;;;;;;;9.93;100.00;99265.06;20930677;28;20045;-68
2022/02/16 16:46:51;;;;;;;2.65;1.00;;;;;;;10.02;100.00;99270.00;20931749;28;20044;-69
2022/02/16 16:56:53;;;;;;;1.98;0.70;;;;;;;10.12;100.00;99260.09;20936324;28;20052;-68
2022/02/16 17:06:55;;;;;;;2.13;0.70;;;;;;;10.23;100.00;99299.00;20954965;28;20064;-68
2022/02/16 17:16:57;;;;;;;3.53;1.50;;;;;;;10.23;100.00;99309.47;20948485;28;20425;-68
2022/02/16 17:26:59;;;;;;;2.25;0.90;;;;;;;10.22;100.00;99313.00;20947079;28;20114;-69
2022/02/16 17:37:01;;;;;;;4.90;2.55;;;;;;;10.25;100.00;99312.91;20945110;28;20209;-67
2022/02/16 17:47:03;;;;;;;2.67;1.20;;;;;;;10.35;100.00;99297.75;20944657;28;20045;-67
2022/02/16 17:57:05;;;;;;;2.45;0.95;;;;;;;10.44;99.49;99271.28;20941529;28;20052;-67
2022/02/16 18:07:07;;;;;;;4.28;1.88;;;;;;;10.48;99.80;99273.75;20941455;28;20045;-67
2022/02/16 18:17:08;;;;;;;7.20;2.53;;;;;;;10.60;99.58;99284.75;20942526;28;20067;-67
2022/02/16 18:27:10;;;;;;;4.95;2.58;;;;;;;10.60;99.27;99293.47;20940454;28;20099;-67
2022/02/16 18:37:12;;;;;;;3.20;1.17;;;;;;;10.52;100.00;99280.59;20939601;28;20045;-66
2022/02/16 18:47:13;;;;;;;3.75;1.38;;;;;;;10.49;100.00;99269.38;20940894;28;20553;-67
2022/02/16 18:57:15;;;;;;;5.60;1.20;;;;;;;10.39;100.00;99283.69;20940711;28;20053;-67
2022/02/16 19:07:16;;;;;;;3.08;1.30;;;;;;;10.40;100.00;99278.41;20935302;28;20041;-67
2022/02/16 19:17:18;;;;;;;3.30;1.52;;;;;;;10.27;100.00;99266.63;20939936;28;20056;-69
2022/02/16 19:27:19;;;;;;;5.00;2.15;;;;;;;10.37;100.00;99238.41;20935774;28;20040;-68
2022/02/16 19:37:21;;;;;;;5.22;2.40;;;;;;;10.20;100.00;99252.00;20935812;28;20823;-69
2022/02/16 19:47:25;;;;;;;5.00;1.80;;;;;;;10.14;100.00;99252.19;20934648;28;20059;-70
2022/02/16 19:57:28;;;;;;;5.35;2.20;;;;;;;10.02;100.00;99254.31;20933154;28;20119;-70
2022/02/16 20:07:29;;;;;;;2.88;1.60;;;;;;;10.03;100.00;99229.88;20931687;28;20559;-71
2022/02/16 20:17:38;;;;;;;3.03;1.20;;;;;;;9.98;100.00;99205.63;20932739;28;20052;-73
2022/02/16 20:27:42;;;;;;;1.40;0.80;;;;;;;9.99;100.00;99196.88;20933038;28;20843;-73
2022/02/16 20:37:44;;;;;;;2.67;1.07;;;;;;;10.00;100.00;99193.34;20934434;28;20071;-70
2022/02/16 20:47:50;;;;;;;3.13;1.10;;;;;;;10.06;100.00;99212.34;20940040;28;20482;-76
2022/02/16 20:57:51;;;;;;;3.35;1.30;;;;;;;10.13;100.00;99203.41;20926947;28;20551;-72
2022/02/16 21:07:53;;;;;;;3.08;1.33;;;;;;;10.14;100.00;99205.13;20932739;28;20056;-71
2022/02/16 21:17:54;;;;;;;4.57;1.63;;;;;;;10.09;100.00;99183.50;20931963;28;20048;-72
2022/02/16 21:27:56;;;;;;;1.38;0.80;;;;;;;10.13;100.00;99201.66;20932801;28;20049;-71
2022/02/16 21:37:59;;;;;;;2.85;1.27;;;;;;;10.18;100.00;99196.28;20934438;28;20057;-76
2022/02/16 21:48:00;;;;;;;3.28;1.30;;;;;;;10.25;100.00;99190.84;20937973;28;20052;-70
2022/02/16 21:58:02;;;;;;;4.00;0.90;;;;;;;10.38;100.00;99162.47;20944957;28;20129;-77
2022/02/16 22:08:04;;;;;;;2.58;0.93;;;;;;;10.55;100.00;99148.81;20941563;28;20052;-77
2022/02/16 22:18:10;;;;;;;1.33;0.50;;;;;;;10.67;100.00;99118.69;20947943;28;20113;-80
2022/02/16 22:28:12;;;;;;;1.98;0.60;;;;;;;10.88;100.00;99067.31;20945515;28;20045;-76
2022/02/16 22:38:14;;;;;;;2.55;0.93;;;;;;;11.23;100.00;99089.53;20939255;28;20053;-78
2022/02/16 22:48:15;;;;;;;1.60;0.52;;;;;;;11.55;100.00;99075.97;20938374;28;20121;-75
2022/02/16 22:58:17;;;;;;;0.40;0.20;;;;;;;11.74;100.00;99059.50;20937330;28;20461;-76
2022/02/16 23:18:39;;;;;;;0.40;0.10;;;;;;;12.06;100.00;99061.59;20945312;28;20486;-74
2022/02/16 23:28:40;;;;;;;0.68;0.20;;;;;;;12.18;100.00;99059.41;20943827;28;20049;-74
2022/02/16 23:38:43;;;;;;;1.13;0.30;;;;;;;12.36;99.06;99037.59;20943815;28;20052;-74
2022/02/16 23:48:45;;;;;;;0.52;0.22;;;;;;;12.46;97.65;99061.66;20944778;28;20490;-72
2022/02/16 23:58:47;;;;;;;2.65;0.20;;;;;;;12.52;96.10;99014.13;20941415;28;20052;-73
